sensor_id;sensor_type;location;lat;lon;timestamp;pressure;altitude;pressure_sealevel;temperature;humidity
73103;BME280;61294;65.988;29.172;2023-05-27T00:00:21;98165.72;;;1.56;77.15
73103;BME280;61294;65.988;29.172;2023-05-27T00:02:47;98167.47;;;1.57;77.31
73103;BME280;61294;65.988;29.172;2023-05-27T00:05:13;98174.50;;;1.61;77.14
73103;BME280;61294;65.988;29.172;2023-05-27T00:07:39;98178.81;;;1.62;76.79
73103;BME280;61294;65.988;29.172;2023-05-27T00:10:06;98184.00;;;1.62;77.23
73103;BME280;61294;65.988;29.172;2023-05-27T00:12:33;98194.03;;;1.47;76.91
73103;BME280;61294;65.988;29.172;2023-05-27T00:14:59;98191.91;;;1.30;78.22
73103;BME280;61294;65.988;29.172;2023-05-27T00:17:25;98168.50;;;1.27;78.87
73103;BME280;61294;65.988;29.172;2023-05-27T00:19:51;98170.88;;;1.19;79.71
73103;BME280;61294;65.988;29.172;2023-05-27T00:22:19;98180.81;;;1.36;79.32
73103;BME280;61294;65.988;29.172;2023-05-27T00:24:45;98200.47;;;1.26;78.41
73103;BME280;61294;65.988;29.172;2023-05-27T00:27:11;98212.69;;;1.30;78.25
73103;BME280;61294;65.988;29.172;2023-05-27T00:29:37;98151.25;;;0.94;78.92
73103;BME280;61294;65.988;29.172;2023-05-27T00:32:04;98222.31;;;1.34;78.58
73103;BME280;61294;65.988;29.172;2023-05-27T00:34:33;98191.63;;;1.19;78.24
73103;BME280;61294;65.988;29.172;2023-05-27T00:37:00;98190.72;;;1.16;78.66
73103;BME280;61294;65.988;29.172;2023-05-27T00:39:26;98210.84;;;1.26;79.19
73103;BME280;61294;65.988;29.172;2023-05-27T00:41:52;98215.72;;;1.14;80.07
73103;BME280;61294;65.988;29.172;2023-05-27T00:44:18;98206.03;;;1.07;79.57
73103;BME280;61294;65.988;29.172;2023-05-27T00:46:45;98228.97;;;1.25;79.62
73103;BME280;61294;65.988;29.172;2023-05-27T00:49:16;98205.47;;;1.18;79.28
73103;BME280;61294;65.988;29.172;2023-05-27T00:51:43;98199.22;;;1.10;79.50
73103;BME280;61294;65.988;29.172;2023-05-27T00:54:09;98195.56;;;1.03;80.29
73103;BME280;61294;65.988;29.172;2023-05-27T00:56:36;98213.03;;;1.11;80.60
73103;BME280;61294;65.988;29.172;2023-05-27T00:59:03;98189.22;;;0.92;80.79
73103;BME280;61294;65.988;29.172;2023-05-27T01:01:31;98207.63;;;1.01;81.70
73103;BME280;61294;65.988;29.172;2023-05-27T01:04:05;98211.22;;;1.07;81.39
73103;BME280;61294;65.988;29.172;2023-05-27T01:09:40;98246.38;;;1.29;81.70
73103;BME280;61294;65.988;29.172;2023-05-27T01:15:18;98251.03;;;1.42;81.45
73103;BME280;61294;65.988;29.172;2023-05-27T01:17:47;98265.88;;;1.48;82.02
73103;BME280;61294;65.988;29.172;2023-05-27T01:20:15;98228.16;;;1.26;81.62
73103;BME280;61294;65.988;29.172;2023-05-27T01:22:45;98259.53;;;1.36;82.10
73103;BME280;61294;65.988;29.172;2023-05-27T01:25:28;98237.63;;;1.25;81.81
73103;BME280;61294;65.988;29.172;2023-05-27T01:27:55;98239.97;;;1.14;84.01
73103;BME280;61294;65.988;29.172;2023-05-27T01:30:27;98238.22;;;1.15;83.38
73103;BME280;61294;65.988;29.172;2023-05-27T01:33:15;98274.34;;;1.41;82.99
73103;BME280;61294;65.988;29.172;2023-05-27T01:35:46;98237.28;;;1.11;83.84
73103;BME280;61294;65.988;29.172;2023-05-27T01:38:18;98250.44;;;1.19;83.49
73103;BME280;61294;65.988;29.172;2023-05-27T01:40:44;98248.56;;;1.13;83.84
73103;BME280;61294;65.988;29.172;2023-05-27T01:43:12;98264.44;;;1.24;83.42
73103;BME280;61294;65.988;29.172;2023-05-27T01:45:39;98286.06;;;1.25;83.74
73103;BME280;61294;65.988;29.172;2023-05-27T01:48:05;98228.88;;;0.88;84.05
73103;BME280;61294;65.988;29.172;2023-05-27T01:50:35;98255.06;;;0.97;84.01
73103;BME280;61294;65.988;29.172;2023-05-27T01:53:03;98271.25;;;1.20;83.81
73103;BME280;61294;65.988;29.172;2023-05-27T01:55:30;98273.91;;;1.24;83.76
73103;BME280;61294;65.988;29.172;2023-05-27T01:57:56;98258.31;;;1.22;83.76
73103;BME280;61294;65.988;29.172;2023-05-27T02:00:23;98277.09;;;1.47;83.87
73103;BME280;61294;65.988;29.172;2023-05-27T02:02:50;98260.94;;;1.24;83.86
73103;BME280;61294;65.988;29.172;2023-05-27T02:05:16;98258.53;;;1.30;84.26
73103;BME280;61294;65.988;29.172;2023-05-27T02:07:45;98241.44;;;1.40;83.91
73103;BME280;61294;65.988;29.172;2023-05-27T02:10:11;98253.84;;;1.50;83.17
73103;BME280;61294;65.988;29.172;2023-05-27T02:12:37;98254.72;;;1.52;83.33
73103;BME280;61294;65.988;29.172;2023-05-27T02:15:12;98278.41;;;1.64;84.54
73103;BME280;61294;65.988;29.172;2023-05-27T02:17:41;98261.72;;;1.54;85.05
73103;BME280;61294;65.988;29.172;2023-05-27T02:20:19;98289.00;;;1.73;84.94
73103;BME280;61294;65.988;29.172;2023-05-27T02:22:49;98275.09;;;1.70;86.10
73103;BME280;61294;65.988;29.172;2023-05-27T02:25:15;98277.66;;;1.68;86.06
73103;BME280;61294;65.988;29.172;2023-05-27T02:27:41;98267.03;;;1.59;85.86
73103;BME280;61294;65.988;29.172;2023-05-27T02:30:32;98280.50;;;1.79;85.18
73103;BME280;61294;65.988;29.172;2023-05-27T02:33:01;98279.56;;;1.76;85.33
73103;BME280;61294;65.988;29.172;2023-05-27T02:35:33;98306.03;;;1.97;85.36
73103;BME280;61294;65.988;29.172;2023-05-27T02:38:01;98266.22;;;1.97;84.43
73103;BME280;61294;65.988;29.172;2023-05-27T02:40:28;98292.22;;;1.98;85.22
73103;BME280;61294;65.988;29.172;2023-05-27T02:42:55;98279.13;;;1.95;85.04
73103;BME280;61294;65.988;29.172;2023-05-27T02:45:25;98306.38;;;2.11;84.50
73103;BME280;61294;65.988;29.172;2023-05-27T02:47:54;98289.03;;;2.10;84.24
73103;BME280;61294;65.988;29.172;2023-05-27T02:50:24;98303.88;;;2.16;84.96
73103;BME280;61294;65.988;29.172;2023-05-27T02:52:53;98322.81;;;2.48;84.42
73103;BME280;61294;65.988;29.172;2023-05-27T02:55:22;98318.41;;;2.46;83.57
73103;BME280;61294;65.988;29.172;2023-05-27T02:57:50;98313.56;;;2.61;82.46
73103;BME280;61294;65.988;29.172;2023-05-27T03:00:17;98286.38;;;2.47;81.80
73103;BME280;61294;65.988;29.172;2023-05-27T03:02:43;98275.16;;;2.51;81.69
73103;BME280;61294;65.988;29.172;2023-05-27T03:05:09;98328.75;;;2.82;81.04
73103;BME280;61294;65.988;29.172;2023-05-27T03:07:35;98326.06;;;2.81;81.10
73103;BME280;61294;65.988;29.172;2023-05-27T03:10:01;98284.78;;;2.53;80.11
73103;BME280;61294;65.988;29.172;2023-05-27T03:12:27;98317.97;;;2.65;80.12
73103;BME280;61294;65.988;29.172;2023-05-27T03:14:53;98294.22;;;2.48;79.92
73103;BME280;61294;65.988;29.172;2023-05-27T03:17:19;98329.25;;;2.66;79.39
73103;BME280;61294;65.988;29.172;2023-05-27T03:19:46;98297.78;;;2.53;79.45
73103;BME280;61294;65.988;29.172;2023-05-27T03:22:12;98264.47;;;2.35;79.37
73103;BME280;61294;65.988;29.172;2023-05-27T03:24:37;98332.91;;;2.74;78.96
73103;BME280;61294;65.988;29.172;2023-05-27T03:27:03;98294.56;;;2.65;78.81
73103;BME280;61294;65.988;29.172;2023-05-27T03:29:30;98335.72;;;2.86;77.96
73103;BME280;61294;65.988;29.172;2023-05-27T03:31:56;98339.31;;;2.91;77.78
73103;BME280;61294;65.988;29.172;2023-05-27T03:34:22;98279.06;;;2.70;77.22
73103;BME280;61294;65.988;29.172;2023-05-27T03:36:48;98312.34;;;2.88;77.80
73103;BME280;61294;65.988;29.172;2023-05-27T03:39:15;98344.84;;;3.07;77.23
73103;BME280;61294;65.988;29.172;2023-05-27T03:41:42;98349.25;;;3.09;76.48
73103;BME280;61294;65.988;29.172;2023-05-27T03:44:08;98349.34;;;3.16;76.15
73103;BME280;61294;65.988;29.172;2023-05-27T03:46:35;98346.88;;;3.23;75.60
73103;BME280;61294;65.988;29.172;2023-05-27T03:49:01;98345.47;;;3.38;75.61
73103;BME280;61294;65.988;29.172;2023-05-27T03:51:28;98347.34;;;3.45;74.66
73103;BME280;61294;65.988;29.172;2023-05-27T03:53:54;98309.09;;;3.44;73.10
73103;BME280;61294;65.988;29.172;2023-05-27T03:56:20;98319.69;;;3.55;72.86
73103;BME280;61294;65.988;29.172;2023-05-27T03:58:46;98352.31;;;3.82;72.18
73103;BME280;61294;65.988;29.172;2023-05-27T04:01:11;98327.81;;;3.72;69.91
73103;BME280;61294;65.988;29.172;2023-05-27T04:03:38;98354.44;;;4.06;69.72
73103;BME280;61294;65.988;29.172;2023-05-27T04:06:07;98353.91;;;4.25;68.45
73103;BME280;61294;65.988;29.172;2023-05-27T04:08:32;98356.59;;;4.31;68.56
73103;BME280;61294;65.988;29.172;2023-05-27T04:10:58;98357.59;;;4.40;67.93
73103;BME280;61294;65.988;29.172;2023-05-27T04:13:24;98333.09;;;4.30;67.92
73103;BME280;61294;65.988;29.172;2023-05-27T04:15:50;98369.66;;;4.35;65.94
73103;BME280;61294;65.988;29.172;2023-05-27T04:18:16;98370.47;;;4.29;66.34
73103;BME280;61294;65.988;29.172;2023-05-27T04:20:42;98339.94;;;4.22;65.96
73103;BME280;61294;65.988;29.172;2023-05-27T04:23:09;98365.38;;;4.37;66.66
73103;BME280;61294;65.988;29.172;2023-05-27T04:25:36;98382.59;;;4.25;66.12
73103;BME280;61294;65.988;29.172;2023-05-27T04:28:03;98379.22;;;4.32;65.71
73103;BME280;61294;65.988;29.172;2023-05-27T04:30:32;98379.28;;;4.37;64.89
73103;BME280;61294;65.988;29.172;2023-05-27T04:32:59;98372.22;;;4.30;64.52
73103;BME280;61294;65.988;29.172;2023-05-27T04:35:26;98382.59;;;4.27;64.17
73103;BME280;61294;65.988;29.172;2023-05-27T04:37:52;98385.16;;;4.24;63.64
73103;BME280;61294;65.988;29.172;2023-05-27T04:40:18;98386.09;;;4.29;63.96
73103;BME280;61294;65.988;29.172;2023-05-27T04:42:44;98379.28;;;4.37;64.40
73103;BME280;61294;65.988;29.172;2023-05-27T04:45:12;98360.13;;;4.34;63.63
73103;BME280;61294;65.988;29.172;2023-05-27T04:47:38;98397.72;;;4.48;63.53
73103;BME280;61294;65.988;29.172;2023-05-27T04:50:08;98395.84;;;4.39;64.27
73103;BME280;61294;65.988;29.172;2023-05-27T04:52:34;98378.44;;;4.38;63.55
73103;BME280;61294;65.988;29.172;2023-05-27T04:55:08;98392.50;;;4.48;62.68
73103;BME280;61294;65.988;29.172;2023-05-27T04:57:35;98365.56;;;4.49;62.64
73103;BME280;61294;65.988;29.172;2023-05-27T05:00:03;98366.47;;;4.53;61.40
73103;BME280;61294;65.988;29.172;2023-05-27T05:02:35;98366.19;;;4.34;61.41
73103;BME280;61294;65.988;29.172;2023-05-27T05:05:02;98397.47;;;4.32;61.80
73103;BME280;61294;65.988;29.172;2023-05-27T05:07:28;98409.56;;;4.29;61.72
73103;BME280;61294;65.988;29.172;2023-05-27T05:09:54;98367.59;;;4.12;62.04
73103;BME280;61294;65.988;29.172;2023-05-27T05:12:20;98369.34;;;4.13;60.81
73103;BME280;61294;65.988;29.172;2023-05-27T05:14:46;98371.09;;;4.14;61.03
73103;BME280;61294;65.988;29.172;2023-05-27T05:17:11;98420.28;;;4.46;61.61
73103;BME280;61294;65.988;29.172;2023-05-27T05:19:37;98389.72;;;4.37;59.78
73103;BME280;61294;65.988;29.172;2023-05-27T05:22:04;98394.88;;;4.34;59.86
73103;BME280;61294;65.988;29.172;2023-05-27T05:24:30;98384.44;;;4.32;59.29
73103;BME280;61294;65.988;29.172;2023-05-27T05:26:56;98385.50;;;4.45;59.80
73103;BME280;61294;65.988;29.172;2023-05-27T05:29:21;98436.19;;;4.61;58.87
73103;BME280;61294;65.988;29.172;2023-05-27T05:31:47;98354.63;;;4.15;58.10
73103;BME280;61294;65.988;29.172;2023-05-27T05:34:13;98434.34;;;4.56;57.73
73103;BME280;61294;65.988;29.172;2023-05-27T05:36:39;98412.47;;;4.47;58.20
73103;BME280;61294;65.988;29.172;2023-05-27T05:39:05;98416.88;;;4.52;56.79
73103;BME280;61294;65.988;29.172;2023-05-27T05:41:31;98434.56;;;4.70;55.63
73103;BME280;61294;65.988;29.172;2023-05-27T05:43:57;98398.75;;;4.58;54.16
73103;BME280;61294;65.988;29.172;2023-05-27T05:46:22;98373.31;;;4.46;54.35
73103;BME280;61294;65.988;29.172;2023-05-27T05:48:51;98401.41;;;4.61;54.54
73103;BME280;61294;65.988;29.172;2023-05-27T05:51:18;98404.81;;;4.58;53.62
73103;BME280;61294;65.988;29.172;2023-05-27T05:53:44;98384.66;;;4.46;53.26
73103;BME280;61294;65.988;29.172;2023-05-27T05:56:09;98437.28;;;4.77;54.01
73103;BME280;61294;65.988;29.172;2023-05-27T05:58:35;98447.72;;;4.77;53.71
73103;BME280;61294;65.988;29.172;2023-05-27T06:01:01;98383.78;;;4.47;53.57
73103;BME280;61294;65.988;29.172;2023-05-27T06:03:27;98437.34;;;4.80;54.73
73103;BME280;61294;65.988;29.172;2023-05-27T06:05:53;98440.88;;;4.84;53.77
73103;BME280;61294;65.988;29.172;2023-05-27T06:08:19;98444.44;;;4.89;53.77
73103;BME280;61294;65.988;29.172;2023-05-27T06:10:45;98452.56;;;5.09;52.61
73103;BME280;61294;65.988;29.172;2023-05-27T06:13:11;98461.16;;;5.02;50.97
73103;BME280;61294;65.988;29.172;2023-05-27T06:15:37;98439.16;;;4.84;52.11
73103;BME280;61294;65.988;29.172;2023-05-27T06:18:04;98457.53;;;4.94;52.55
73103;BME280;61294;65.988;29.172;2023-05-27T06:20:30;98465.47;;;5.00;52.70
73103;BME280;61294;65.988;29.172;2023-05-27T06:22:56;98445.44;;;4.99;52.46
73103;BME280;61294;65.988;29.172;2023-05-27T06:25:22;98462.09;;;5.09;50.98
73103;BME280;61294;65.988;29.172;2023-05-27T06:27:48;98466.50;;;5.11;51.09
73103;BME280;61294;65.988;29.172;2023-05-27T06:30:14;98459.66;;;5.19;50.91
73103;BME280;61294;65.988;29.172;2023-05-27T06:32:40;98456.25;;;5.25;51.84
73103;BME280;61294;65.988;29.172;2023-05-27T06:35:07;98468.50;;;5.31;51.59
73103;BME280;61294;65.988;29.172;2023-05-27T06:37:33;98446.03;;;5.44;51.37
73103;BME280;61294;65.988;29.172;2023-05-27T06:39:59;98456.84;;;5.72;50.36
73103;BME280;61294;65.988;29.172;2023-05-27T06:42:25;98464.06;;;5.96;50.88
73103;BME280;61294;65.988;29.172;2023-05-27T06:44:51;98471.97;;;5.99;49.86
73103;BME280;61294;65.988;29.172;2023-05-27T06:47:17;98435.81;;;5.62;49.28
73103;BME280;61294;65.988;29.172;2023-05-27T06:49:44;98479.47;;;5.74;48.68
73103;BME280;61294;65.988;29.172;2023-05-27T06:52:10;98485.91;;;5.98;49.32
73103;BME280;61294;65.988;29.172;2023-05-27T06:54:36;98456.38;;;6.08;47.79
73103;BME280;61294;65.988;29.172;2023-05-27T06:57:02;98488.66;;;6.09;48.22
73103;BME280;61294;65.988;29.172;2023-05-27T06:59:29;98451.81;;;5.92;48.39
73103;BME280;61294;65.988;29.172;2023-05-27T07:01:55;98480.91;;;6.21;48.48
73103;BME280;61294;65.988;29.172;2023-05-27T07:04:24;98491.53;;;6.38;47.82
73103;BME280;61294;65.988;29.172;2023-05-27T07:06:50;98444.78;;;5.84;47.66
73103;BME280;61294;65.988;29.172;2023-05-27T07:09:16;98502.59;;;6.11;47.86
73103;BME280;61294;65.988;29.172;2023-05-27T07:11:42;98509.56;;;6.09;47.41
73103;BME280;61294;65.988;29.172;2023-05-27T07:14:08;98473.59;;;5.91;47.48
73103;BME280;61294;65.988;29.172;2023-05-27T07:16:37;98508.69;;;6.11;46.23
73103;BME280;61294;65.988;29.172;2023-05-27T07:19:03;98506.81;;;5.98;44.86
73103;BME280;61294;65.988;29.172;2023-05-27T07:21:29;98507.84;;;6.11;45.95
73103;BME280;61294;65.988;29.172;2023-05-27T07:23:55;98477.22;;;6.02;45.90
73103;BME280;61294;65.988;29.172;2023-05-27T07:26:24;98508.16;;;6.43;45.72
73103;BME280;61294;65.988;29.172;2023-05-27T07:28:53;98503.09;;;6.59;46.14
73103;BME280;61294;65.988;29.172;2023-05-27T07:31:19;98494.41;;;6.63;43.59
73103;BME280;61294;65.988;29.172;2023-05-27T07:33:45;98512.72;;;6.64;43.50
73103;BME280;61294;65.988;29.172;2023-05-27T07:36:11;98511.91;;;6.70;42.03
73103;BME280;61294;65.988;29.172;2023-05-27T07:38:37;98489.91;;;6.52;40.97
73103;BME280;61294;65.988;29.172;2023-05-27T07:41:02;98485.41;;;6.33;41.51
73103;BME280;61294;65.988;29.172;2023-05-27T07:43:28;98491.69;;;6.55;41.60
73103;BME280;61294;65.988;29.172;2023-05-27T07:45:54;98521.84;;;7.13;40.63
73103;BME280;61294;65.988;29.172;2023-05-27T07:48:20;98531.53;;;7.31;40.15
73103;BME280;61294;65.988;29.172;2023-05-27T07:50:46;98513.31;;;7.49;40.15
73103;BME280;61294;65.988;29.172;2023-05-27T07:53:12;98536.03;;;7.47;38.91
73103;BME280;61294;65.988;29.172;2023-05-27T07:55:38;98542.00;;;7.29;40.00
73103;BME280;61294;65.988;29.172;2023-05-27T07:58:04;98538.78;;;7.72;39.37
73103;BME280;61294;65.988;29.172;2023-05-27T08:00:30;98534.13;;;7.23;39.51
73103;BME280;61294;65.988;29.172;2023-05-27T08:02:56;98533.72;;;6.72;40.36
73103;BME280;61294;65.988;29.172;2023-05-27T08:05:22;98509.31;;;6.71;39.54
73103;BME280;61294;65.988;29.172;2023-05-27T08:07:47;98506.75;;;6.82;39.07
73103;BME280;61294;65.988;29.172;2023-05-27T08:10:14;98554.38;;;7.49;39.54
73103;BME280;61294;65.988;29.172;2023-05-27T08:12:40;98504.69;;;7.78;38.89
73103;BME280;61294;65.988;29.172;2023-05-27T08:15:06;98508.34;;;8.11;38.78
73103;BME280;61294;65.988;29.172;2023-05-27T08:17:32;98512.81;;;8.49;38.79
73103;BME280;61294;65.988;29.172;2023-05-27T08:19:58;98514.59;;;8.73;38.21
73103;BME280;61294;65.988;29.172;2023-05-27T08:22:23;98551.25;;;8.27;38.61
73103;BME280;61294;65.988;29.172;2023-05-27T08:24:50;98549.47;;;8.26;39.29
73103;BME280;61294;65.988;29.172;2023-05-27T08:27:16;98553.81;;;8.07;39.74
73103;BME280;61294;65.988;29.172;2023-05-27T08:29:43;98523.13;;;7.89;39.45
73103;BME280;61294;65.988;29.172;2023-05-27T08:32:09;98558.06;;;7.86;39.24
73103;BME280;61294;65.988;29.172;2023-05-27T08:34:36;98520.41;;;7.66;38.74
73103;BME280;61294;65.988;29.172;2023-05-27T08:37:01;98560.69;;;7.89;38.17
73103;BME280;61294;65.988;29.172;2023-05-27T08:39:29;98538.00;;;7.91;39.20
73103;BME280;61294;65.988;29.172;2023-05-27T08:41:55;98553.09;;;8.54;38.05
73103;BME280;61294;65.988;29.172;2023-05-27T08:44:23;98518.09;;;8.78;39.36
73103;BME280;61294;65.988;29.172;2023-05-27T08:46:50;98543.47;;;9.38;38.22
73103;BME280;61294;65.988;29.172;2023-05-27T08:49:17;98515.47;;;9.26;37.53
73103;BME280;61294;65.988;29.172;2023-05-27T08:51:44;98551.38;;;8.89;38.43
73103;BME280;61294;65.988;29.172;2023-05-27T08:54:10;98551.34;;;9.13;38.15
73103;BME280;61294;65.988;29.172;2023-05-27T08:56:37;98562.63;;;9.80;38.20
73103;BME280;61294;65.988;29.172;2023-05-27T08:59:04;98519.59;;;10.00;36.44
73103;BME280;61294;65.988;29.172;2023-05-27T09:01:31;98524.75;;;10.26;37.44
73103;BME280;61294;65.988;29.172;2023-05-27T09:03:58;98559.09;;;9.92;36.70
73103;BME280;61294;65.988;29.172;2023-05-27T09:06:24;98550.03;;;10.58;35.66
73103;BME280;61294;65.988;29.172;2023-05-27T09:08:51;98565.59;;;10.94;33.83
73103;BME280;61294;65.988;29.172;2023-05-27T09:11:24;98539.69;;;10.18;34.62
73103;BME280;61294;65.988;29.172;2023-05-27T09:13:53;98582.75;;;10.08;35.78
73103;BME280;61294;65.988;29.172;2023-05-27T09:16:21;98542.44;;;9.89;35.74
73103;BME280;61294;65.988;29.172;2023-05-27T09:18:48;98562.44;;;10.36;36.20
73103;BME280;61294;65.988;29.172;2023-05-27T09:21:14;98537.13;;;10.01;35.30
73103;BME280;61294;65.988;29.172;2023-05-27T09:23:40;98541.66;;;9.60;34.83
73103;BME280;61294;65.988;29.172;2023-05-27T09:26:08;98569.56;;;10.05;36.30
73103;BME280;61294;65.988;29.172;2023-05-27T09:28:36;98565.78;;;10.67;33.87
73103;BME280;61294;65.988;29.172;2023-05-27T09:31:04;98537.38;;;11.07;33.91
73103;BME280;61294;65.988;29.172;2023-05-27T09:33:32;98539.38;;;10.77;33.67
73103;BME280;61294;65.988;29.172;2023-05-27T09:35:59;98548.59;;;9.88;35.33
73103;BME280;61294;65.988;29.172;2023-05-27T09:38:35;98561.66;;;10.14;36.03
73103;BME280;61294;65.988;29.172;2023-05-27T09:41:03;98538.94;;;9.93;34.41
73103;BME280;61294;65.988;29.172;2023-05-27T09:43:29;98544.31;;;11.18;33.11
73103;BME280;61294;65.988;29.172;2023-05-27T09:46:01;98564.41;;;9.77;35.02
73103;BME280;61294;65.988;29.172;2023-05-27T09:48:29;98574.16;;;9.07;35.74
73103;BME280;61294;65.988;29.172;2023-05-27T09:50:56;98578.00;;;11.80;33.05
73103;BME280;61294;65.988;29.172;2023-05-27T09:53:24;98541.75;;;20.14;24.34
73103;BME280;61294;65.988;29.172;2023-05-27T09:55:54;98567.09;;;23.70;20.26
73103;BME280;61294;65.988;29.172;2023-05-27T09:58:21;98525.69;;;18.89;23.07
73103;BME280;61294;65.988;29.172;2023-05-27T10:00:48;98568.69;;;15.16;24.62
73103;BME280;61294;65.988;29.172;2023-05-27T10:03:18;98573.69;;;17.69;24.22
73103;BME280;61294;65.988;29.172;2023-05-27T10:05:46;98581.94;;;20.13;21.41
73103;BME280;61294;65.988;29.172;2023-05-27T10:08:14;98557.97;;;21.96;19.12
73103;BME280;61294;65.988;29.172;2023-05-27T10:10:40;98564.78;;;23.78;18.71
73103;BME280;61294;65.988;29.172;2023-05-27T10:13:07;98580.94;;;18.87;21.69
73103;BME280;61294;65.988;29.172;2023-05-27T10:15:34;98577.81;;;20.83;20.51
73103;BME280;61294;65.988;29.172;2023-05-27T10:18:06;98564.59;;;24.84;16.61
73103;BME280;61294;65.988;29.172;2023-05-27T10:20:38;98574.28;;;25.28;15.84
73103;BME280;61294;65.988;29.172;2023-05-27T10:23:18;98573.94;;;21.64;18.61
73103;BME280;61294;65.988;29.172;2023-05-27T10:25:52;98561.69;;;15.48;23.90
73103;BME280;61294;65.988;29.172;2023-05-27T10:28:28;98579.75;;;19.39;20.59
73103;BME280;61294;65.988;29.172;2023-05-27T10:31:15;98576.03;;;25.15;17.56
73103;BME280;61294;65.988;29.172;2023-05-27T10:33:47;98581.84;;;26.04;16.47
73103;BME280;61294;65.988;29.172;2023-05-27T10:36:22;98540.50;;;27.16;15.64
73103;BME280;61294;65.988;29.172;2023-05-27T10:39:15;98545.88;;;25.37;15.33
73103;BME280;61294;65.988;29.172;2023-05-27T10:41:49;98572.16;;;25.74;16.16
73103;BME280;61294;65.988;29.172;2023-05-27T10:44:29;98553.16;;;26.03;15.79
73103;BME280;61294;65.988;29.172;2023-05-27T10:47:02;98579.50;;;23.57;16.39
73103;BME280;61294;65.988;29.172;2023-05-27T10:49:32;98579.53;;;18.06;20.09
73103;BME280;61294;65.988;29.172;2023-05-27T10:52:16;98577.91;;;27.35;16.16
73103;BME280;61294;65.988;29.172;2023-05-27T10:54:44;98559.50;;;20.36;19.31
73103;BME280;61294;65.988;29.172;2023-05-27T10:57:17;98582.28;;;16.06;23.37
73103;BME280;61294;65.988;29.172;2023-05-27T10:59:51;98590.66;;;15.58;24.50
73103;BME280;61294;65.988;29.172;2023-05-27T11:02:21;98571.75;;;16.03;24.63
73103;BME280;61294;65.988;29.172;2023-05-27T11:04:50;98593.59;;;15.11;25.17
73103;BME280;61294;65.988;29.172;2023-05-27T11:07:18;98565.97;;;13.96;26.45
73103;BME280;61294;65.988;29.172;2023-05-27T11:09:50;98574.09;;;13.40;27.83
73103;BME280;61294;65.988;29.172;2023-05-27T11:12:20;98596.03;;;13.93;27.20
73103;BME280;61294;65.988;29.172;2023-05-27T11:14:51;98560.19;;;14.63;26.54
73103;BME280;61294;65.988;29.172;2023-05-27T11:17:18;98548.81;;;14.56;25.94
73103;BME280;61294;65.988;29.172;2023-05-27T11:19:45;98583.50;;;13.55;27.46
73103;BME280;61294;65.988;29.172;2023-05-27T11:22:12;98576.94;;;14.23;27.30
73103;BME280;61294;65.988;29.172;2023-05-27T11:24:38;98588.06;;;12.90;27.65
73103;BME280;61294;65.988;29.172;2023-05-27T11:27:12;98565.19;;;13.91;27.01
73103;BME280;61294;65.988;29.172;2023-05-27T11:29:38;98562.03;;;13.20;27.94
73103;BME280;61294;65.988;29.172;2023-05-27T11:32:05;98581.09;;;14.35;27.13
73103;BME280;61294;65.988;29.172;2023-05-27T11:34:35;98562.38;;;17.88;24.47
73103;BME280;61294;65.988;29.172;2023-05-27T11:37:04;98577.91;;;18.25;22.22
73103;BME280;61294;65.988;29.172;2023-05-27T11:39:31;98562.34;;;15.22;24.93
73103;BME280;61294;65.988;29.172;2023-05-27T11:41:57;98585.88;;;13.70;27.60
73103;BME280;61294;65.988;29.172;2023-05-27T11:44:24;98540.53;;;13.42;26.67
73103;BME280;61294;65.988;29.172;2023-05-27T11:46:51;98587.44;;;14.70;26.75
73103;BME280;61294;65.988;29.172;2023-05-27T11:49:19;98588.03;;;13.48;27.87
73103;BME280;61294;65.988;29.172;2023-05-27T11:51:49;98586.78;;;12.58;28.45
73103;BME280;61294;65.988;29.172;2023-05-27T11:54:21;98552.59;;;19.70;22.29
73103;BME280;61294;65.988;29.172;2023-05-27T11:56:48;98556.34;;;15.83;24.78
73103;BME280;61294;65.988;29.172;2023-05-27T11:59:14;98576.97;;;20.83;20.72
73103;BME280;61294;65.988;29.172;2023-05-27T12:01:41;98570.38;;;22.65;19.28
73103;BME280;61294;65.988;29.172;2023-05-27T12:04:07;98571.22;;;24.35;17.95
73103;BME280;61294;65.988;29.172;2023-05-27T12:06:34;98565.13;;;27.00;16.31
73103;BME280;61294;65.988;29.172;2023-05-27T12:09:02;98573.28;;;19.87;19.52
73103;BME280;61294;65.988;29.172;2023-05-27T12:11:29;98583.69;;;19.30;20.91
73103;BME280;61294;65.988;29.172;2023-05-27T12:13:54;98577.72;;;23.88;17.44
73103;BME280;61294;65.988;29.172;2023-05-27T12:16:20;98557.06;;;23.58;17.35
73103;BME280;61294;65.988;29.172;2023-05-27T12:18:46;98580.69;;;25.80;16.99
73103;BME280;61294;65.988;29.172;2023-05-27T12:21:14;98588.34;;;24.77;15.59
73103;BME280;61294;65.988;29.172;2023-05-27T12:23:41;98599.53;;;20.38;18.70
73103;BME280;61294;65.988;29.172;2023-05-27T12:26:07;98588.91;;;24.10;16.23
73103;BME280;61294;65.988;29.172;2023-05-27T12:28:33;98586.78;;;25.29;15.01
73103;BME280;61294;65.988;29.172;2023-05-27T12:30:59;98570.09;;;22.03;17.82
73103;BME280;61294;65.988;29.172;2023-05-27T12:33:26;98585.47;;;24.37;16.05
73103;BME280;61294;65.988;29.172;2023-05-27T12:35:51;98574.31;;;25.69;15.34
73103;BME280;61294;65.988;29.172;2023-05-27T12:38:18;98561.47;;;27.01;15.24
73103;BME280;61294;65.988;29.172;2023-05-27T12:40:47;98560.09;;;29.05;14.78
73103;BME280;61294;65.988;29.172;2023-05-27T12:43:18;98562.50;;;25.29;15.18
73103;BME280;61294;65.988;29.172;2023-05-27T12:45:44;98567.06;;;20.26;18.71
73103;BME280;61294;65.988;29.172;2023-05-27T12:48:13;98579.47;;;25.04;15.78
73103;BME280;61294;65.988;29.172;2023-05-27T12:50:40;98576.34;;;27.07;14.94
73103;BME280;61294;65.988;29.172;2023-05-27T12:53:07;98556.78;;;27.76;14.71
73103;BME280;61294;65.988;29.172;2023-05-27T12:55:34;98570.78;;;29.30;14.36
73103;BME280;61294;65.988;29.172;2023-05-27T12:58:01;98566.31;;;28.85;13.76
73103;BME280;61294;65.988;29.172;2023-05-27T13:00:27;98555.47;;;27.93;14.30
73103;BME280;61294;65.988;29.172;2023-05-27T13:02:53;98566.25;;;27.46;14.53
73103;BME280;61294;65.988;29.172;2023-05-27T13:05:20;98563.34;;;27.96;14.13